Time;durP1;ratioP1;P1;durP2;ratioP2;P2;SDS_P1;SDS_P2;PMS_P1;PMS_P2;Temp;Humidity;BMP_temperature;BMP_pressure;BME280_temperature;BME280_humidity;BME280_pressure;Samples;Min_cycle;Max_cycle;Signal;HPM_P1;HPM_P2
2022/12/11 00:01:43;;;;;;;;;;;24.90;90.90;;;;;;5043186;28;19919;-69
2022/12/11 00:04:10;;;;;;;;;;;25.00;90.30;;;;;;5055774;28;20712;-69
2022/12/11 00:06:37;;;;;;;;;;;24.90;90.70;;;;;;5055126;28;19913;-68
2022/12/11 00:09:03;;;;;;;;;;;25.00;90.80;;;;;;5057072;28;19959;-68
2022/12/11 00:11:30;;;;;;;;;;;25.20;90.60;;;;;;5054627;28;20268;-68
2022/12/11 00:13:57;;;;;;;;;;;25.10;90.40;;;;;;5056210;28;19908;-69
2022/12/11 00:16:23;;;;;;;;;;;25.30;91.00;;;;;;5048515;28;19913;-68
2022/12/11 00:18:50;;;;;;;;;;;25.50;90.50;;;;;;5035721;28;19908;-67
2022/12/11 00:21:16;;;;;;;;;;;25.50;91.10;;;;;;5035224;28;19909;-68
2022/12/11 00:23:43;;;;;;;;;;;25.70;91.00;;;;;;5036645;28;19932;-68
2022/12/11 00:26:12;;;;;;;;;;;25.70;91.70;;;;;;5036173;28;19921;-70
2022/12/11 00:28:39;;;;;;;;;;;26.00;90.50;;;;;;5056393;28;19919;-70
2022/12/11 00:31:07;;;;;;;;;;;26.10;89.60;;;;;;5056252;28;19908;-69
2022/12/11 00:33:33;;;;;;;;;;;26.20;90.00;;;;;;5055397;28;19924;-69
2022/12/11 00:36:00;;;;;;;;;;;26.40;90.40;;;;;;5054930;28;19959;-70
2022/12/11 00:38:27;;;;;;;;;;;26.50;90.40;;;;;;5054456;28;19962;-70
2022/12/11 00:40:57;;;;;;;;;;;26.50;90.30;;;;;;5053957;28;20353;-69
2022/12/11 00:43:24;;;;;;;;;;;26.60;89.60;;;;;;5054970;28;19916;-68
2022/12/11 00:45:51;;;;;;;;;;;26.60;90.00;;;;;;5054653;28;19912;-69
2022/12/11 00:48:17;;;;;;;;;;;26.70;88.70;;;;;;5054562;28;19915;-69
2022/12/11 00:50:44;;;;;;;;;;;26.70;90.10;;;;;;5055635;28;20346;-69
2022/12/11 00:53:10;;;;;;;;;;;26.70;89.10;;;;;;5053893;28;20304;-69
2022/12/11 00:55:38;;;;;;;;;;;26.90;89.30;;;;;;5056363;28;19912;-69
2022/12/11 00:58:04;;;;;;;;;;;26.90;88.80;;;;;;5038516;28;19909;-69
2022/12/11 01:00:31;;;;;;;;;;;26.90;87.90;;;;;;5035493;28;19992;-69
2022/12/11 01:02:58;;;;;;;;;;;27.10;89.10;;;;;;5034286;28;19917;-70
2022/12/11 01:05:24;;;;;;;;;;;27.30;88.60;;;;;;5034669;28;20003;-69
2022/12/11 01:07:51;;;;;;;;;;;27.30;88.70;;;;;;5049527;28;19982;-70
2022/12/11 01:10:24;;;;;;;;;;;27.30;87.40;;;;;;5033645;28;19970;-70
2022/12/11 01:12:50;;;;;;;;;;;27.30;87.70;;;;;;5036350;28;20015;-69
2022/12/11 01:15:17;;;;;;;;;;;27.50;87.70;;;;;;5051887;28;19969;-70
2022/12/11 01:17:44;;;;;;;;;;;27.70;86.90;;;;;;5054742;28;19908;-69
2022/12/11 01:20:11;;;;;;;;;;;27.90;87.10;;;;;;5052747;28;19909;-69
2022/12/11 01:22:38;;;;;;;;;;;28.20;85.80;;;;;;5053584;28;19912;-69
2022/12/11 01:25:05;;;;;;;;;;;28.20;86.40;;;;;;5048433;28;19928;-69
2022/12/11 01:27:32;;;;;;;;;;;28.10;86.20;;;;;;5034798;28;19920;-73
2022/12/11 01:29:58;;;;;;;;;;;28.10;85.30;;;;;;5033149;28;19912;-69
2022/12/11 01:32:26;;;;;;;;;;;28.00;86.30;;;;;;5034010;28;19921;-71
2022/12/11 01:34:53;;;;;;;;;;;28.20;87.00;;;;;;5035337;28;19912;-68
2022/12/11 01:37:20;;;;;;;;;;;28.20;85.60;;;;;;5035409;28;19909;-69
2022/12/11 01:39:46;;;;;;;;;;;28.10;87.00;;;;;;5035517;28;20007;-68
2022/12/11 01:42:17;;;;;;;;;;;28.40;86.60;;;;;;5036692;28;19931;-69
2022/12/11 01:44:43;;;;;;;;;;;28.60;86.00;;;;;;5053911;28;20619;-70
2022/12/11 01:47:10;;;;;;;;;;;28.80;84.60;;;;;;5053343;28;19944;-69
2022/12/11 01:49:38;;;;;;;;;;;28.80;84.80;;;;;;5056126;28;19954;-69
2022/12/11 01:52:12;;;;;;;;;;;28.90;83.40;;;;;;5058686;28;19944;-69
2022/12/11 01:54:38;;;;;;;;;;;29.00;84.20;;;;;;5058634;28;19919;-69
2022/12/11 01:57:07;;;;;;;;;;;29.10;84.50;;;;;;5058175;28;19912;-69
2022/12/11 01:59:36;;;;;;;;;;;29.00;82.90;;;;;;5058450;28;19916;-70
2022/12/11 02:02:08;;;;;;;;;;;28.90;85.30;;;;;;5056477;28;19912;-70
2022/12/11 02:04:36;;;;;;;;;;;29.00;82.70;;;;;;5058384;28;19921;-70
2022/12/11 02:07:04;;;;;;;;;;;29.10;84.50;;;;;;5058204;28;19913;-69
2022/12/11 02:09:32;;;;;;;;;;;29.30;82.90;;;;;;5058096;28;20293;-70
2022/12/11 02:12:06;;;;;;;;;;;29.30;82.10;;;;;;5058516;28;19915;-70
2022/12/11 02:14:39;;;;;;;;;;;29.20;82.00;;;;;;5058410;28;19960;-69
2022/12/11 02:17:14;;;;;;;;;;;29.30;81.70;;;;;;5056682;28;19908;-68
2022/12/11 02:19:40;;;;;;;;;;;29.30;82.90;;;;;;5058136;28;19908;-71
2022/12/11 02:22:10;;;;;;;;;;;29.40;81.50;;;;;;5057310;28;19919;-67
2022/12/11 02:24:49;;;;;;;;;;;29.60;83.10;;;;;;5057340;28;19928;-69
2022/12/11 02:27:35;;;;;;;;;;;29.90;81.80;;;;;;5056897;28;19920;-70
2022/12/11 02:30:10;;;;;;;;;;;30.00;80.70;;;;;;5058677;28;19908;-70
2022/12/11 02:32:38;;;;;;;;;;;29.90;80.50;;;;;;5057236;28;19931;-70
2022/12/11 02:35:10;;;;;;;;;;;29.70;80.80;;;;;;5057617;28;20062;-71
2022/12/11 02:37:38;;;;;;;;;;;29.80;81.00;;;;;;5057162;28;19971;-71
2022/12/11 02:40:07;;;;;;;;;;;30.10;81.10;;;;;;5058437;28;20616;-71
2022/12/11 02:42:35;;;;;;;;;;;30.30;80.70;;;;;;5058830;28;20340;-72
2022/12/11 02:45:03;;;;;;;;;;;30.30;80.30;;;;;;5059013;28;19908;-71
2022/12/11 02:47:30;;;;;;;;;;;30.10;79.10;;;;;;5058257;28;19974;-69
2022/12/11 02:49:59;;;;;;;;;;;30.20;79.30;;;;;;5057869;28;19919;-67
2022/12/11 02:52:27;;;;;;;;;;;30.20;80.00;;;;;;5056590;28;20608;-69
2022/12/11 02:54:55;;;;;;;;;;;30.30;78.70;;;;;;5057688;28;20406;-69
2022/12/11 02:57:51;;;;;;;;;;;30.10;79.90;;;;;;5056432;28;19908;-69
2022/12/11 03:00:18;;;;;;;;;;;30.80;78.60;;;;;;5052014;28;19909;-69
2022/12/11 03:02:45;;;;;;;;;;;30.70;78.20;;;;;;5055659;28;19943;-68
2022/12/11 03:05:12;;;;;;;;;;;31.00;78.50;;;;;;5056583;28;20357;-71
2022/12/11 03:07:40;;;;;;;;;;;31.50;77.30;;;;;;5057401;28;20011;-69
2022/12/11 03:10:08;;;;;;;;;;;31.90;76.40;;;;;;5058856;28;19908;-69
2022/12/11 03:12:36;;;;;;;;;;;32.30;75.50;;;;;;5058330;28;19944;-70
2022/12/11 03:15:05;;;;;;;;;;;32.40;75.90;;;;;;5057919;28;20006;-69
2022/12/11 03:17:43;;;;;;;;;;;32.90;74.10;;;;;;5057178;28;19912;-69
2022/12/11 03:20:19;;;;;;;;;;;33.40;73.30;;;;;;5057974;28;20003;-70
2022/12/11 03:22:55;;;;;;;;;;;33.20;73.70;;;;;;5055757;28;20361;-69
2022/12/11 03:25:23;;;;;;;;;;;33.40;72.70;;;;;;5057889;28;19920;-70
2022/12/11 03:27:58;;;;;;;;;;;33.90;72.30;;;;;;5052661;28;19917;-70
2022/12/11 03:30:26;;;;;;;;;;;34.50;70.90;;;;;;5038067;28;19918;-71
2022/12/11 03:32:55;;;;;;;;;;;34.30;70.50;;;;;;5035706;28;19913;-70
2022/12/11 03:35:53;;;;;;;;;;;35.20;69.40;;;;;;5038344;28;19915;-69
2022/12/11 03:38:32;;;;;;;;;;;35.30;68.80;;;;;;5013525;28;19913;-70
2022/12/11 03:41:01;;;;;;;;;;;35.00;68.20;;;;;;5056398;28;20461;-71
2022/12/11 03:43:29;;;;;;;;;;;36.00;68.00;;;;;;5057169;28;19917;-70
2022/12/11 03:45:56;;;;;;;;;;;36.60;66.20;;;;;;5039380;28;19908;-70
2022/12/11 03:48:24;;;;;;;;;;;37.40;63.90;;;;;;5038475;28;19920;-69
2022/12/11 03:50:51;;;;;;;;;;;37.20;63.80;;;;;;5034198;28;20120;-69
2022/12/11 03:53:18;;;;;;;;;;;36.90;64.50;;;;;;5038028;28;19912;-70
2022/12/11 03:55:45;;;;;;;;;;;37.00;64.90;;;;;;5035728;28;19916;-71
2022/12/11 03:58:12;;;;;;;;;;;36.70;63.50;;;;;;5037447;28;19935;-71
2022/12/11 04:00:39;;;;;;;;;;;36.00;64.60;;;;;;5035999;28;20365;-70
2022/12/11 04:03:16;;;;;;;;;;;36.00;64.10;;;;;;5035679;28;19920;-70
2022/12/11 04:05:47;;;;;;;;;;;36.00;64.30;;;;;;5036729;28;20344;-69
2022/12/11 04:08:14;;;;;;;;;;;36.10;64.70;;;;;;5037838;28;19917;-71
2022/12/11 04:10:41;;;;;;;;;;;37.00;63.10;;;;;;5035814;28;19977;-69
2022/12/11 04:13:08;;;;;;;;;;;37.00;62.90;;;;;;5035461;28;20007;-68
2022/12/11 04:15:35;;;;;;;;;;;36.60;63.80;;;;;;5036685;28;20000;-69
2022/12/11 04:26:17;;;;;;;;;;;36.20;63.50;;;;;;5036702;28;20341;-70
2022/12/11 04:28:44;;;;;;;;;;;35.50;65.30;;;;;;5035835;28;19932;-69
2022/12/11 04:31:11;;;;;;;;;;;35.30;66.60;;;;;;5035164;28;19909;-69
2022/12/11 04:33:38;;;;;;;;;;;35.70;65.70;;;;;;5035700;28;19909;-71
2022/12/11 04:36:05;;;;;;;;;;;36.10;65.80;;;;;;5034904;28;19919;-69
2022/12/11 04:38:31;;;;;;;;;;;36.40;64.60;;;;;;5037179;28;19909;-70
2022/12/11 04:41:03;;;;;;;;;;;36.80;63.50;;;;;;5034652;28;19909;-68
2022/12/11 04:43:29;;;;;;;;;;;36.60;64.20;;;;;;5036904;28;19956;-69
2022/12/11 04:46:12;;;;;;;;;;;36.40;64.10;;;;;;5033766;28;19916;-68
2022/12/11 04:48:40;;;;;;;;;;;35.50;65.20;;;;;;5052422;28;19968;-69
2022/12/11 04:51:07;;;;;;;;;;;34.70;66.90;;;;;;5054602;28;19919;-69
2022/12/11 04:53:34;;;;;;;;;;;35.00;66.60;;;;;;5056699;28;20392;-68
2022/12/11 04:56:01;;;;;;;;;;;35.40;66.60;;;;;;5053344;28;19915;-69
2022/12/11 04:58:27;;;;;;;;;;;35.80;66.60;;;;;;5053946;28;21679;-69
2022/12/11 05:00:54;;;;;;;;;;;36.20;65.40;;;;;;5034665;28;19917;-69
2022/12/11 05:03:20;;;;;;;;;;;36.60;65.10;;;;;;5036197;28;20015;-69
2022/12/11 05:05:49;;;;;;;;;;;36.70;64.90;;;;;;5034600;28;20300;-69
2022/12/11 05:08:16;;;;;;;;;;;36.80;64.10;;;;;;5048076;28;19916;-71
2022/12/11 05:10:43;;;;;;;;;;;36.20;65.20;;;;;;5055573;28;19948;-69
2022/12/11 05:13:10;;;;;;;;;;;35.40;65.90;;;;;;5054001;28;19912;-69
2022/12/11 05:15:39;;;;;;;;;;;34.60;67.10;;;;;;5056549;28;19916;-68
2022/12/11 05:18:06;;;;;;;;;;;34.60;67.00;;;;;;5053534;28;19915;-69
2022/12/11 05:20:32;;;;;;;;;;;34.00;68.60;;;;;;5055975;28;19915;-70
2022/12/11 05:22:59;;;;;;;;;;;34.60;67.50;;;;;;5053789;28;20815;-70
2022/12/11 05:25:26;;;;;;;;;;;34.60;67.10;;;;;;5055064;28;19971;-69
2022/12/11 05:27:52;;;;;;;;;;;34.50;68.00;;;;;;5054196;28;19912;-68
2022/12/11 05:30:19;;;;;;;;;;;34.30;68.20;;;;;;5054213;28;19916;-70
2022/12/11 05:32:45;;;;;;;;;;;34.40;67.30;;;;;;5055426;28;19950;-69
2022/12/11 05:35:12;;;;;;;;;;;33.90;68.80;;;;;;5053655;28;20473;-68
2022/12/11 05:37:39;;;;;;;;;;;34.10;68.70;;;;;;5056051;28;19920;-70
2022/12/11 05:40:06;;;;;;;;;;;33.80;68.80;;;;;;5054045;28;20424;-67
2022/12/11 05:42:33;;;;;;;;;;;32.60;70.50;;;;;;5056468;28;20284;-68
2022/12/11 05:45:00;;;;;;;;;;;32.00;72.80;;;;;;5055163;28;20388;-69
2022/12/11 05:47:27;;;;;;;;;;;31.90;73.00;;;;;;5056272;28;19966;-69
2022/12/11 05:49:53;;;;;;;;;;;31.70;73.70;;;;;;5055609;28;19923;-68
2022/12/11 05:52:20;;;;;;;;;;;31.40;74.00;;;;;;5053549;28;19909;-70
2022/12/11 05:54:49;;;;;;;;;;;30.40;76.60;;;;;;5056840;28;19908;-70
2022/12/11 05:57:16;;;;;;;;;;;30.00;78.20;;;;;;5050539;28;20376;-69
2022/12/11 05:59:44;;;;;;;;;;;29.70;79.10;;;;;;5037511;28;20701;-69
2022/12/11 06:02:10;;;;;;;;;;;29.60;79.90;;;;;;5032151;28;19908;-70
2022/12/11 06:04:37;;;;;;;;;;;29.70;78.90;;;;;;5037613;28;20334;-69
2022/12/11 06:07:03;;;;;;;;;;;29.40;79.70;;;;;;5035219;28;19913;-70
2022/12/11 06:09:30;;;;;;;;;;;29.40;79.70;;;;;;5034504;28;20007;-70
2022/12/11 06:11:57;;;;;;;;;;;29.30;80.10;;;;;;5036802;28;20350;-70
2022/12/11 06:14:23;;;;;;;;;;;29.30;79.70;;;;;;5035449;28;19936;-70
2022/12/11 06:16:50;;;;;;;;;;;29.00;80.70;;;;;;5037729;28;19963;-69
2022/12/11 06:19:17;;;;;;;;;;;29.00;81.00;;;;;;5033404;28;19909;-67
2022/12/11 06:21:44;;;;;;;;;;;29.10;80.10;;;;;;5037559;28;20016;-68
2022/12/11 06:24:11;;;;;;;;;;;28.90;81.00;;;;;;5034740;28;19947;-69
2022/12/11 06:26:38;;;;;;;;;;;28.60;81.90;;;;;;5037132;28;19909;-68
2022/12/11 06:29:05;;;;;;;;;;;28.30;82.60;;;;;;5036891;28;19974;-68
2022/12/11 06:31:31;;;;;;;;;;;28.00;83.50;;;;;;5048466;28;19912;-68
2022/12/11 06:33:58;;;;;;;;;;;27.90;84.40;;;;;;5039731;28;19913;-69
2022/12/11 06:36:25;;;;;;;;;;;27.80;85.00;;;;;;5034843;28;19913;-68
2022/12/11 06:38:52;;;;;;;;;;;27.90;85.00;;;;;;5051926;28;19919;-68
2022/12/11 06:41:18;;;;;;;;;;;28.00;84.90;;;;;;5056048;28;19912;-69
2022/12/11 06:43:45;;;;;;;;;;;28.00;85.10;;;;;;5055340;28;19920;-70
2022/12/11 06:46:16;;;;;;;;;;;28.30;84.60;;;;;;5057206;28;19920;-69
2022/12/11 06:48:43;;;;;;;;;;;27.80;85.30;;;;;;5057040;28;19917;-67
2022/12/11 06:51:12;;;;;;;;;;;28.00;85.40;;;;;;5053445;28;19915;-69
2022/12/11 06:53:39;;;;;;;;;;;27.90;86.00;;;;;;5055077;28;19913;-70
2022/12/11 06:56:07;;;;;;;;;;;27.80;85.50;;;;;;5045387;28;19920;-69
2022/12/11 06:58:34;;;;;;;;;;;27.60;86.90;;;;;;5045295;28;19920;-69
2022/12/11 07:01:02;;;;;;;;;;;27.50;87.30;;;;;;5058883;28;19972;-70
2022/12/11 07:03:29;;;;;;;;;;;27.20;87.60;;;;;;5057296;28;19921;-70
2022/12/11 07:06:04;;;;;;;;;;;27.10;88.40;;;;;;4995476;28;19967;-70
2022/12/11 07:08:31;;;;;;;;;;;26.90;88.50;;;;;;5055128;28;19920;-69
2022/12/11 07:11:04;;;;;;;;;;;26.80;88.30;;;;;;5056157;28;19912;-69
2022/12/11 07:13:32;;;;;;;;;;;26.80;88.60;;;;;;5056060;28;19909;-69
2022/12/11 07:16:00;;;;;;;;;;;26.80;88.50;;;;;;5054810;28;19912;-70
2022/12/11 07:18:27;;;;;;;;;;;26.80;88.30;;;;;;5047561;28;19947;-69
2022/12/11 07:20:54;;;;;;;;;;;26.70;89.10;;;;;;5042465;28;19921;-70
2022/12/11 07:23:20;;;;;;;;;;;26.60;89.20;;;;;;5036992;28;20407;-71
2022/12/11 07:25:47;;;;;;;;;;;26.50;89.50;;;;;;5044611;28;19928;-70
2022/12/11 07:28:14;;;;;;;;;;;26.40;90.00;;;;;;5055814;28;19921;-71
2022/12/11 07:30:40;;;;;;;;;;;26.30;90.20;;;;;;5055412;28;19973;-70
2022/12/11 07:33:07;;;;;;;;;;;26.20;90.40;;;;;;5054612;28;19965;-70
2022/12/11 07:35:35;;;;;;;;;;;26.10;90.60;;;;;;5057358;28;21071;-70
2022/12/11 07:38:01;;;;;;;;;;;26.10;90.40;;;;;;5053313;28;20385;-69
2022/12/11 07:40:28;;;;;;;;;;;26.00;90.40;;;;;;5051678;28;19948;-69
2022/12/11 07:42:55;;;;;;;;;;;25.90;90.70;;;;;;5044906;28;19927;-71
2022/12/11 07:45:21;;;;;;;;;;;25.90;90.80;;;;;;5040610;28;19944;-71
2022/12/11 07:47:48;;;;;;;;;;;25.70;91.20;;;;;;5038627;28;19938;-71
2022/12/11 07:50:15;;;;;;;;;;;25.60;91.60;;;;;;5034179;28;19905;-69
2022/12/11 07:52:42;;;;;;;;;;;25.50;91.90;;;;;;5034713;28;19913;-70
2022/12/11 07:55:09;;;;;;;;;;;25.30;92.10;;;;;;5044269;28;20565;-71
2022/12/11 07:57:35;;;;;;;;;;;25.20;92.40;;;;;;5053584;28;19942;-70
2022/12/11 08:00:03;;;;;;;;;;;25.10;92.70;;;;;;5046532;28;20338;-70
2022/12/11 08:02:30;;;;;;;;;;;24.90;93.00;;;;;;5042540;28;19912;-70
2022/12/11 08:04:56;;;;;;;;;;;24.90;93.30;;;;;;5049890;28;19954;-71
2022/12/11 08:07:23;;;;;;;;;;;24.80;93.60;;;;;;5051538;28;19912;-72
2022/12/11 08:09:50;;;;;;;;;;;24.80;93.70;;;;;;5053995;28;19937;-71
2022/12/11 08:12:16;;;;;;;;;;;24.90;93.80;;;;;;5038297;28;19917;-68
2022/12/11 08:14:43;;;;;;;;;;;24.80;94.20;;;;;;5042984;28;19924;-70
2022/12/11 08:17:09;;;;;;;;;;;24.70;94.50;;;;;;5041383;28;19915;-68
2022/12/11 08:19:36;;;;;;;;;;;24.50;94.80;;;;;;5044305;28;19924;-71
2022/12/11 08:22:03;;;;;;;;;;;24.40;95.30;;;;;;5042554;28;20012;-70
2022/12/11 08:24:29;;;;;;;;;;;24.30;95.50;;;;;;5045493;28;20055;-71
2022/12/11 08:26:56;;;;;;;;;;;24.20;95.60;;;;;;5048010;28;19913;-73
2022/12/11 08:29:23;;;;;;;;;;;24.20;96.00;;;;;;5043957;28;19923;-72
2022/12/11 08:31:49;;;;;;;;;;;24.20;96.10;;;;;;5062671;28;19987;-73
2022/12/11 08:34:16;;;;;;;;;;;24.10;96.60;;;;;;5042985;28;20304;-71
2022/12/11 08:36:43;;;;;;;;;;;24.10;96.80;;;;;;5045580;28;19913;-71
2022/12/11 08:39:09;;;;;;;;;;;24.00;97.00;;;;;;5042303;28;19913;-70
2022/12/11 08:41:36;;;;;;;;;;;24.00;97.40;;;;;;5044940;28;19917;-69
2022/12/11 08:44:03;;;;;;;;;;;24.00;97.40;;;;;;5041794;28;19921;-72
2022/12/11 08:46:31;;;;;;;;;;;24.00;97.20;;;;;;5044903;28;20388;-68
2022/12/11 08:48:58;;;;;;;;;;;24.00;96.90;;;;;;5045182;28;20003;-71
2022/12/11 08:51:26;;;;;;;;;;;23.90;97.10;;;;;;5043237;28;19912;-71
2022/12/11 08:53:57;;;;;;;;;;;24.00;96.80;;;;;;5046319;28;20281;-71
2022/12/11 08:56:24;;;;;;;;;;;23.90;96.90;;;;;;5043583;28;19909;-72
2022/12/11 08:58:51;;;;;;;;;;;23.90;97.30;;;;;;5043795;28;19913;-71
2022/12/11 09:01:20;;;;;;;;;;;23.90;97.20;;;;;;5042479;28;19912;-70
2022/12/11 09:03:47;;;;;;;;;;;23.90;97.40;;;;;;5044757;28;19925;-70
2022/12/11 09:06:16;;;;;;;;;;;23.90;97.40;;;;;;5044974;28;20234;-70
2022/12/11 09:08:44;;;;;;;;;;;23.90;97.60;;;;;;5044581;28;19912;-71
2022/12/11 09:11:12;;;;;;;;;;;23.80;97.80;;;;;;5046666;28;19917;-70
2022/12/11 09:13:39;;;;;;;;;;;23.90;97.90;;;;;;5043914;28;19924;-71
2022/12/11 09:16:10;;;;;;;;;;;23.90;98.30;;;;;;5045215;28;19908;-71
2022/12/11 09:18:37;;;;;;;;;;;23.80;98.50;;;;;;5042906;28;19913;-70
2022/12/11 09:21:05;;;;;;;;;;;23.80;99.00;;;;;;5047040;28;19913;-70
2022/12/11 09:23:32;;;;;;;;;;;23.80;99.10;;;;;;5045655;28;19916;-69
2022/12/11 09:25:59;;;;;;;;;;;23.80;99.50;;;;;;5056629;28;20096;-69
2022/12/11 09:28:25;;;;;;;;;;;23.80;99.70;;;;;;5070968;28;19910;-70
2022/12/11 09:30:52;;;;;;;;;;;23.80;99.80;;;;;;5057668;28;19913;-70
2022/12/11 09:33:19;;;;;;;;;;;23.70;99.90;;;;;;5049131;28;19999;-70
2022/12/11 09:35:45;;;;;;;;;;;23.80;99.90;;;;;;5054352;28;19961;-70
2022/12/11 09:38:12;;;;;;;;;;;23.80;99.90;;;;;;5048320;28;20553;-70
2022/12/11 09:40:40;;;;;;;;;;;23.70;99.90;;;;;;5044453;28;19912;-72
2022/12/11 09:43:14;;;;;;;;;;;23.70;99.90;;;;;;5043203;28;19925;-69
2022/12/11 09:45:41;;;;;;;;;;;23.70;99.90;;;;;;5041200;28;19913;-69
2022/12/11 09:48:09;;;;;;;;;;;23.70;99.90;;;;;;5043068;28;20045;-70
2022/12/11 09:50:36;;;;;;;;;;;23.70;99.90;;;;;;5043260;28;19909;-70
2022/12/11 09:53:03;;;;;;;;;;;23.70;99.90;;;;;;5041622;28;19963;-70
2022/12/11 09:55:34;;;;;;;;;;;23.70;99.90;;;;;;5042457;28;19943;-72
2022/12/11 09:58:22;;;;;;;;;;;23.70;99.90;;;;;;5041036;28;20358;-71
2022/12/11 10:00:54;;;;;;;;;;;23.70;99.90;;;;;;5046435;28;20324;-69
2022/12/11 10:03:45;;;;;;;;;;;23.70;99.80;;;;;;5042318;28;19950;-70
2022/12/11 10:06:12;;;;;;;;;;;23.70;99.70;;;;;;5046843;28;19916;-71
2022/12/11 10:08:44;;;;;;;;;;;23.70;99.70;;;;;;5053911;28;19912;-70
2022/12/11 10:11:48;;;;;;;;;;;23.70;99.60;;;;;;5057759;28;20127;-69
2022/12/11 10:14:15;;;;;;;;;;;23.80;99.70;;;;;;5016563;28;20275;-70
2022/12/11 10:16:48;;;;;;;;;;;23.80;99.80;;;;;;5014890;28;20284;-69
2022/12/11 10:19:34;;;;;;;;;;;23.80;99.50;;;;;;5028307;28;19916;-70
2022/12/11 10:22:01;;;;;;;;;;;23.80;99.60;;;;;;5036563;28;19908;-68
2022/12/11 10:24:55;;;;;;;;;;;23.90;99.70;;;;;;5038819;28;19921;-70
2022/12/11 10:27:25;;;;;;;;;;;23.80;99.70;;;;;;5044085;28;19912;-70
2022/12/11 10:30:00;;;;;;;;;;;23.80;99.90;;;;;;5053986;28;19975;-71
2022/12/11 10:32:35;;;;;;;;;;;23.80;99.90;;;;;;5049510;28;19917;-69
2022/12/11 10:35:04;;;;;;;;;;;23.80;99.90;;;;;;5046474;28;19955;-71
2022/12/11 10:37:31;;;;;;;;;;;23.80;99.90;;;;;;5046565;28;20373;-70
2022/12/11 10:39:57;;;;;;;;;;;23.80;99.90;;;;;;5044854;28;19913;-69
2022/12/11 10:42:24;;;;;;;;;;;23.80;99.90;;;;;;5035943;28;19978;-70
2022/12/11 10:44:55;;;;;;;;;;;23.70;99.90;;;;;;5046149;28;20723;-69
2022/12/11 10:47:21;;;;;;;;;;;23.70;99.90;;;;;;5055666;28;19909;-70
2022/12/11 10:49:58;;;;;;;;;;;23.70;99.90;;;;;;5055863;28;19991;-69
2022/12/11 10:52:31;;;;;;;;;;;23.70;99.90;;;;;;5047529;28;19913;-69
2022/12/11 10:55:06;;;;;;;;;;;23.70;99.90;;;;;;5038767;28;20003;-68
2022/12/11 10:57:38;;;;;;;;;;;23.70;99.90;;;;;;5042997;28;19924;-71
2022/12/11 11:00:06;;;;;;;;;;;23.70;99.90;;;;;;5046349;28;19969;-69
2022/12/11 11:02:38;;;;;;;;;;;23.60;99.90;;;;;;5035370;28;19970;-69
2022/12/11 11:05:15;;;;;;;;;;;23.60;99.90;;;;;;5037983;28;19913;-70
2022/12/11 11:07:43;;;;;;;;;;;23.60;99.90;;;;;;5040015;28;20201;-68
2022/12/11 11:10:09;;;;;;;;;;;23.60;99.90;;;;;;5041559;28;19913;-70
2022/12/11 11:12:39;;;;;;;;;;;23.50;99.90;;;;;;5036506;28;19948;-71
2022/12/11 11:15:07;;;;;;;;;;;23.50;99.90;;;;;;5038849;28;19985;-70
2022/12/11 11:17:40;;;;;;;;;;;23.50;99.90;;;;;;5035398;28;19988;-69
2022/12/11 11:20:12;;;;;;;;;;;23.40;99.90;;;;;;5037931;28;19909;-70
2022/12/11 11:22:45;;;;;;;;;;;23.40;99.90;;;;;;5035205;28;19916;-70
2022/12/11 11:25:16;;;;;;;;;;;23.40;99.90;;;;;;5036828;28;19928;-72
2022/12/11 11:27:48;;;;;;;;;;;23.40;99.90;;;;;;5043496;28;19912;-70
2022/12/11 11:30:20;;;;;;;;;;;23.50;99.90;;;;;;5056053;28;19909;-70
2022/12/11 11:32:48;;;;;;;;;;;23.50;99.90;;;;;;5056300;28;19947;-69
2022/12/11 11:35:17;;;;;;;;;;;23.50;99.90;;;;;;5046658;28;19959;-71
2022/12/11 11:37:45;;;;;;;;;;;23.50;99.90;;;;;;5037509;28;19915;-69
2022/12/11 11:40:21;;;;;;;;;;;23.50;99.90;;;;;;5037117;28;19962;-70
2022/12/11 11:43:06;;;;;;;;;;;23.40;99.90;;;;;;5036469;28;20392;-70
2022/12/11 11:45:37;;;;;;;;;;;23.40;99.90;;;;;;5034992;28;19944;-69
2022/12/11 11:48:21;;;;;;;;;;;23.50;99.90;;;;;;5047718;28;20549;-69
2022/12/11 11:50:49;;;;;;;;;;;23.40;99.90;;;;;;5056234;28;19931;-68
2022/12/11 11:53:23;;;;;;;;;;;23.40;99.90;;;;;;5058066;28;20372;-70
2022/12/11 11:56:08;;;;;;;;;;;23.40;99.90;;;;;;5053462;28;19912;-68
2022/12/11 11:58:37;;;;;;;;;;;23.40;99.90;;;;;;5055683;28;19912;-70
2022/12/11 12:01:04;;;;;;;;;;;23.30;99.90;;;;;;5055862;28;19920;-70
2022/12/11 12:03:31;;;;;;;;;;;23.30;99.90;;;;;;5055810;28;20292;-71
2022/12/11 12:06:10;;;;;;;;;;;23.30;99.90;;;;;;5054163;28;19908;-68
2022/12/11 12:08:41;;;;;;;;;;;23.30;99.90;;;;;;5053735;28;20054;-68
2022/12/11 12:11:32;;;;;;;;;;;23.30;99.90;;;;;;5056413;28;20894;-69
2022/12/11 12:14:07;;;;;;;;;;;23.30;99.90;;;;;;5054385;28;20158;-68
2022/12/11 12:16:57;;;;;;;;;;;23.30;99.90;;;;;;5057327;28;19954;-70
2022/12/11 12:19:36;;;;;;;;;;;23.30;99.90;;;;;;5057126;28;20315;-69
2022/12/11 12:22:22;;;;;;;;;;;23.20;99.90;;;;;;5054864;28;19908;-67
2022/12/11 12:24:48;;;;;;;;;;;23.30;99.90;;;;;;5053581;28;19927;-70
2022/12/11 12:27:18;;;;;;;;;;;23.20;99.90;;;;;;5056039;28;19908;-68
2022/12/11 12:29:53;;;;;;;;;;;23.30;99.90;;;;;;5054137;28;19948;-68
2022/12/11 12:32:26;;;;;;;;;;;23.30;99.90;;;;;;5056891;28;19909;-70
2022/12/11 12:35:10;;;;;;;;;;;23.30;99.90;;;;;;5054534;28;20008;-70
2022/12/11 12:37:56;;;;;;;;;;;23.20;99.90;;;;;;5053995;28;19920;-71
2022/12/11 12:40:27;;;;;;;;;;;23.20;99.90;;;;;;5056614;28;20307;-71
2022/12/11 12:43:09;;;;;;;;;;;23.20;99.90;;;;;;5053437;28;19912;-71
2022/12/11 12:45:43;;;;;;;;;;;23.20;99.90;;;;;;5057245;28;19912;-72
2022/12/11 12:48:09;;;;;;;;;;;23.20;99.90;;;;;;5055929;28;19912;-71
2022/12/11 12:50:44;;;;;;;;;;;23.20;99.90;;;;;;5057206;28;19917;-72
2022/12/11 12:53:17;;;;;;;;;;;23.30;99.90;;;;;;5053859;28;20353;-70
2022/12/11 12:55:44;;;;;;;;;;;23.20;99.90;;;;;;5056594;28;19912;-71
2022/12/11 12:58:29;;;;;;;;;;;23.20;99.90;;;;;;5046540;28;20281;-70
2022/12/11 13:01:16;;;;;;;;;;;23.30;99.90;;;;;;5035442;28;20366;-72
2022/12/11 13:03:52;;;;;;;;;;;23.20;99.90;;;;;;5037632;28;19917;-71
2022/12/11 13:06:29;;;;;;;;;;;23.20;99.90;;;;;;5034277;28;19927;-69
2022/12/11 13:08:56;;;;;;;;;;;23.20;99.90;;;;;;5036151;28;19955;-70
2022/12/11 13:11:30;;;;;;;;;;;23.20;99.90;;;;;;5036690;28;19988;-70
2022/12/11 13:14:03;;;;;;;;;;;23.30;99.90;;;;;;5036946;28;19908;-70
2022/12/11 13:16:40;;;;;;;;;;;23.30;99.90;;;;;;5036238;28;19966;-68
2022/12/11 13:19:17;;;;;;;;;;;23.30;99.90;;;;;;5034606;28;19908;-69
2022/12/11 13:21:54;;;;;;;;;;;23.20;99.90;;;;;;5036093;28;19916;-70
2022/12/11 13:24:20;;;;;;;;;;;23.20;99.90;;;;;;5034458;28;19924;-70
2022/12/11 13:26:48;;;;;;;;;;;23.20;99.90;;;;;;5036318;28;20366;-69
2022/12/11 13:29:33;;;;;;;;;;;23.30;99.90;;;;;;5034878;28;19919;-69
2022/12/11 13:32:05;;;;;;;;;;;23.20;99.90;;;;;;5037931;28;20396;-69
2022/12/11 13:34:33;;;;;;;;;;;23.30;99.90;;;;;;5033816;28;19909;-69
2022/12/11 13:37:01;;;;;;;;;;;23.30;99.90;;;;;;5035944;28;19963;-69
2022/12/11 13:39:33;;;;;;;;;;;23.20;99.90;;;;;;5033715;28;19943;-70
2022/12/11 13:42:21;;;;;;;;;;;23.30;99.90;;;;;;5034790;28;19909;-70
2022/12/11 13:44:49;;;;;;;;;;;23.30;99.90;;;;;;5036263;28;19917;-71
2022/12/11 13:47:17;;;;;;;;;;;23.30;99.90;;;;;;5055948;28;19983;-71
2022/12/11 13:49:45;;;;;;;;;;;23.30;99.90;;;;;;5059093;28;19908;-68
2022/12/11 13:52:22;;;;;;;;;;;23.30;99.90;;;;;;5058937;28;20321;-71
2022/12/11 13:54:50;;;;;;;;;;;23.30;99.90;;;;;;5059486;28;19913;-70
2022/12/11 13:57:19;;;;;;;;;;;23.30;99.90;;;;;;5058709;28;19916;-69
2022/12/11 13:59:48;;;;;;;;;;;23.20;99.90;;;;;;5059569;28;19909;-69
2022/12/11 14:02:23;;;;;;;;;;;23.30;99.90;;;;;;5058550;28;19955;-71
2022/12/11 14:04:52;;;;;;;;;;;23.30;99.90;;;;;;5051584;28;19964;-70
2022/12/11 14:07:30;;;;;;;;;;;23.20;99.90;;;;;;5038105;28;19995;-73
2022/12/11 14:10:00;;;;;;;;;;;23.30;99.90;;;;;;5039779;28;19913;-69
2022/12/11 14:12:28;;;;;;;;;;;23.30;99.90;;;;;;5036134;28;20656;-69
2022/12/11 14:14:55;;;;;;;;;;;23.30;99.90;;;;;;5039766;28;19959;-69
2022/12/11 14:17:27;;;;;;;;;;;23.30;99.90;;;;;;5037454;28;19913;-71
2022/12/11 14:19:55;;;;;;;;;;;23.30;99.90;;;;;;5039739;28;19916;-71
2022/12/11 14:22:23;;;;;;;;;;;23.30;99.90;;;;;;5037867;28;19913;-70
2022/12/11 14:24:53;;;;;;;;;;;23.30;99.90;;;;;;5038239;28;19921;-69
2022/12/11 14:27:21;;;;;;;;;;;23.30;99.90;;;;;;5038425;28;19909;-69
2022/12/11 14:29:47;;;;;;;;;;;23.30;99.90;;;;;;5037954;28;19913;-68
2022/12/11 14:32:26;;;;;;;;;;;23.40;99.90;;;;;;5038138;28;19917;-69
2022/12/11 14:34:54;;;;;;;;;;;23.40;99.90;;;;;;5038995;28;19916;-69
2022/12/11 14:37:22;;;;;;;;;;;23.30;99.90;;;;;;5038312;28;19908;-69
2022/12/11 14:39:54;;;;;;;;;;;23.30;99.90;;;;;;5037166;28;19995;-70